Time;durP1;ratioP1;P1;durP2;ratioP2;P2;SDS_P1;SDS_P2;PMS_P1;PMS_P2;Temp;Humidity;BMP_temperature;BMP_pressure;BME280_temperature;BME280_humidity;BME280_pressure;Samples;Min_cycle;Max_cycle;Signal;HPM_P1;HPM_P2
2023/09/01 00:05:50;;;;;;;10.10;4.60;;;15.70;1.00;;;;;;20747376;28;20033;-43
2023/09/01 00:15:50;;;;;;;9.65;4.95;;;15.70;1.00;;;;;;20744241;28;20497;-43
2023/09/01 00:25:59;;;;;;;11.07;5.70;;;15.80;1.00;;;;;;20744890;28;20180;-43
2023/09/01 00:36:00;;;;;;;8.48;4.55;;;15.70;1.00;;;;;;20743486;28;20137;-43
2023/09/01 00:46:01;;;;;;;8.80;4.78;;;15.70;1.00;;;;;;20743015;28;20030;-43
2023/09/01 00:56:03;;;;;;;9.07;5.40;;;15.60;1.00;;;;;;20742896;28;20052;-42
2023/09/01 01:06:17;;;;;;;7.53;5.05;;;15.40;1.00;;;;;;20743342;28;20069;-43
2023/09/01 01:16:18;;;;;;;11.82;5.07;;;15.30;1.00;;;;;;20742687;28;20072;-43
2023/09/01 01:26:19;;;;;;;8.85;4.80;;;15.10;4.90;;;;;;20745135;28;20072;-43
2023/09/01 01:36:23;;;;;;;12.93;5.85;;;14.90;8.80;;;;;;20756883;28;20048;-43
2023/09/01 01:46:26;;;;;;;9.93;5.22;;;14.80;18.30;;;;;;20757293;28;20037;-43
2023/09/01 01:56:26;;;;;;;10.98;5.80;;;14.70;20.10;;;;;;20751908;28;20534;-43
2023/09/01 02:06:27;;;;;;;11.20;6.50;;;14.80;32.20;;;;;;20751721;28;20099;-43
2023/09/01 02:16:28;;;;;;;10.70;6.32;;;14.90;25.80;;;;;;20748636;28;20098;-43
2023/09/01 02:26:28;;;;;;;13.10;6.43;;;15.10;11.90;;;;;;20749916;28;20588;-43
2023/09/01 02:36:34;;;;;;;11.57;6.53;;;15.10;13.00;;;;;;20752601;28;20043;-43
2023/09/01 02:46:35;;;;;;;12.15;5.63;;;15.30;1.00;;;;;;20752411;28;20655;-43
2023/09/01 02:56:35;;;;;;;14.73;6.35;;;15.30;1.00;;;;;;20749503;28;20073;-43
2023/09/01 03:06:36;;;;;;;9.90;5.43;;;15.20;3.60;;;;;;20748669;28;20034;-43
2023/09/01 03:16:36;;;;;;;10.88;5.82;;;15.20;3.40;;;;;;20750573;28;20077;-43
2023/09/01 03:26:37;;;;;;;10.37;5.63;;;15.30;1.00;;;;;;20747650;28;20043;-43
2023/09/01 03:36:37;;;;;;;13.07;6.15;;;15.30;1.00;;;;;;20747532;28;20400;-43
2023/09/01 03:46:38;;;;;;;10.60;5.00;;;15.30;1.00;;;;;;20748319;28;20176;-43
2023/09/01 03:56:38;;;;;;;11.60;6.35;;;15.30;1.00;;;;;;20743762;28;20501;-43
2023/09/01 04:06:40;;;;;;;8.13;5.28;;;15.30;1.00;;;;;;20744540;28;20520;-43
2023/09/01 04:16:41;;;;;;;13.15;6.65;;;15.40;1.00;;;;;;20745309;28;20046;-43
2023/09/01 04:26:41;;;;;;;14.55;6.30;;;15.40;1.00;;;;;;20744484;28;20049;-42
2023/09/01 04:36:42;;;;;;;14.30;7.75;;;15.40;6.30;;;;;;20744874;28;20287;-42
2023/09/01 04:46:42;;;;;;;11.95;5.97;;;15.40;27.40;;;;;;20745421;28;20175;-42
2023/09/01 04:56:43;;;;;;;13.05;6.88;;;15.30;40.00;;;;;;20741526;28;20048;-42
2023/09/01 05:06:43;;;;;;;15.75;7.90;;;15.20;47.50;;;;;;20756344;28;20073;-43
2023/09/01 05:16:44;;;;;;;11.73;6.53;;;15.10;45.90;;;;;;20758363;28;20071;-43
2023/09/01 05:26:45;;;;;;;10.88;5.40;;;15.10;58.70;;;;;;20756847;28;20044;-43
2023/09/01 05:36:46;;;;;;;11.55;6.13;;;15.10;51.90;;;;;;20756074;28;20038;-43
2023/09/01 05:46:46;;;;;;;10.35;5.72;;;15.10;54.20;;;;;;20755345;28;20375;-43
2023/09/01 05:56:47;;;;;;;11.07;6.60;;;15.10;44.60;;;;;;20754305;28;20567;-43
2023/09/01 06:06:47;;;;;;;9.20;6.45;;;15.20;31.80;;;;;;20755554;28;20451;-42
2023/09/01 06:16:50;;;;;;;10.85;6.45;;;15.30;33.80;;;;;;20751693;28;20045;-43
2023/09/01 06:26:53;;;;;;;13.95;7.30;;;15.30;23.50;;;;;;20749238;28;20040;-43
2023/09/01 06:36:55;;;;;;;9.70;6.45;;;15.30;25.70;;;;;;20751729;28;20044;-43
2023/09/01 06:46:55;;;;;;;11.30;6.32;;;15.30;29.30;;;;;;20750890;28;20080;-43
2023/09/01 06:56:56;;;;;;;10.20;6.90;;;15.50;24.00;;;;;;20749269;28;20432;-43
2023/09/01 07:06:57;;;;;;;11.93;7.53;;;15.50;24.30;;;;;;20750112;28;20099;-43
2023/09/01 07:16:57;;;;;;;12.45;7.07;;;15.50;22.10;;;;;;20748726;28;20409;-42
2023/09/01 07:26:58;;;;;;;10.57;7.20;;;15.50;18.40;;;;;;20748737;28;20049;-43
2023/09/01 07:36:59;;;;;;;11.75;7.35;;;15.60;17.70;;;;;;20748057;28;20042;-43
2023/09/01 07:46:59;;;;;;;14.02;7.15;;;15.70;12.30;;;;;;20747357;28;20048;-43
2023/09/01 07:57:00;;;;;;;12.23;6.85;;;15.70;9.10;;;;;;20744850;28;20038;-43
2023/09/01 08:07:00;;;;;;;7.90;5.60;;;15.80;8.00;;;;;;20745119;28;20386;-43
2023/09/01 08:17:01;;;;;;;11.52;6.22;;;15.80;2.90;;;;;;20743510;28;20483;-43
2023/09/01 08:27:01;;;;;;;10.88;6.53;;;15.90;4.20;;;;;;20743508;28;20041;-43
2023/09/01 08:37:03;;;;;;;10.88;6.53;;;15.90;2.80;;;;;;20754106;28;20045;-43
2023/09/01 08:47:04;;;;;;;10.15;5.82;;;15.90;2.30;;;;;;20761142;28;20026;-43
2023/09/01 08:57:04;;;;;;;9.18;5.43;;;15.90;4.90;;;;;;20759836;28;20525;-43
2023/09/01 09:07:16;;;;;;;9.88;5.30;;;16.00;4.90;;;;;;20759659;28;20132;-43
2023/09/01 09:17:20;;;;;;;12.23;5.65;;;16.10;6.10;;;;;;20759581;28;20042;-43
2023/09/01 09:27:22;;;;;;;8.00;4.82;;;16.20;1.00;;;;;;20757406;28;20477;-43
2023/09/01 09:37:22;;;;;;;9.20;5.60;;;16.20;2.80;;;;;;20757889;28;20405;-43
2023/09/01 09:47:23;;;;;;;10.65;5.30;;;16.30;1.00;;;;;;20756136;28;20044;-43
2023/09/01 09:57:24;;;;;;;8.73;5.47;;;16.30;1.00;;;;;;20755517;28;20037;-43
2023/09/01 10:07:25;;;;;;;9.07;4.90;;;16.30;1.00;;;;;;20756847;28;20064;-43
2023/09/01 10:17:26;;;;;;;11.30;7.23;;;16.40;1.00;;;;;;20734493;28;20045;-43
2023/09/01 10:27:26;;;;;;;10.95;7.38;;;16.50;1.00;;;;;;20748564;28;20037;-43
2023/09/01 10:37:30;;;;;;;10.77;6.55;;;16.80;1.00;;;;;;20751167;28;20552;-43
2023/09/01 10:47:30;;;;;;;13.55;7.15;;;17.10;1.00;;;;;;20745999;28;20041;-43
2023/09/01 10:57:46;;;;;;;12.90;7.05;;;17.20;1.00;;;;;;20741374;28;20167;-43
2023/09/01 11:08:24;;;;;;;11.70;7.03;;;17.40;1.00;;;;;;20746693;28;20459;-43
2023/09/01 11:18:25;;;;;;;12.37;8.67;;;17.60;1.00;;;;;;20671348;28;20049;-43
2023/09/01 11:28:27;;;;;;;12.23;8.32;;;17.60;1.00;;;;;;20741531;28;20033;-43
2023/09/01 11:38:27;;;;;;;13.18;9.40;;;17.70;1.00;;;;;;20731696;28;20468;-43
2023/09/01 11:48:28;;;;;;;10.88;8.93;;;17.70;1.00;;;;;;20722377;28;20033;-43
2023/09/01 11:58:35;;;;;;;11.35;8.15;;;17.90;1.00;;;;;;20734683;28;20091;-43
2023/09/01 12:08:35;;;;;;;11.17;7.57;;;17.80;1.00;;;;;;20743543;28;20087;-43
2023/09/01 12:18:41;;;;;;;13.80;9.27;;;17.90;1.00;;;;;;20742193;28;20045;-43
2023/09/01 12:28:43;;;;;;;10.80;7.70;;;18.20;1.00;;;;;;20740269;28;20056;-43
2023/09/01 12:38:44;;;;;;;11.70;8.50;;;18.50;1.00;;;;;;20743577;28;20230;-43
2023/09/01 12:48:44;;;;;;;10.07;8.38;;;18.70;1.00;;;;;;20739020;28;20034;-43
2023/09/01 12:58:45;;;;;;;8.57;6.40;;;18.50;1.00;;;;;;20737752;28;20037;-43
2023/09/01 13:08:45;;;;;;;8.40;7.07;;;18.30;1.00;;;;;;20734567;28;20070;-43
2023/09/01 13:18:46;;;;;;;8.25;6.07;;;18.20;1.00;;;;;;20731712;28;20046;-43
2023/09/01 13:28:47;;;;;;;8.68;6.57;;;18.30;1.00;;;;;;20747287;28;20255;-43
2023/09/01 13:38:49;;;;;;;12.43;7.32;;;18.30;1.00;;;;;;20729478;28;20038;-43
2023/09/01 13:48:54;;;;;;;8.20;6.97;;;18.60;1.00;;;;;;20730945;28;20048;-43
2023/09/01 13:58:55;;;;;;;9.48;7.15;;;18.70;1.00;;;;;;20727614;28;20052;-43
2023/09/01 14:08:56;;;;;;;9.50;7.78;;;18.70;1.00;;;;;;20739067;28;20076;-43
2023/09/01 14:18:57;;;;;;;8.37;6.90;;;19.60;1.00;;;;;;20743635;28;20076;-43
2023/09/01 14:28:57;;;;;;;10.03;8.60;;;19.50;1.00;;;;;;20736031;28;20116;-43
2023/09/01 14:38:58;;;;;;;9.38;7.88;;;20.30;1.00;;;;;;20747052;28;20041;-43
2023/09/01 14:49:00;;;;;;;8.88;7.72;;;20.70;1.00;;;;;;20739156;28;20117;-43
2023/09/01 14:59:00;;;;;;;9.77;8.02;;;20.80;1.00;;;;;;20738147;28;20065;-42
2023/09/01 15:09:01;;;;;;;10.13;8.25;;;20.70;1.00;;;;;;20744056;28;20087;-43
2023/09/01 15:19:01;;;;;;;10.63;7.82;;;20.60;1.00;;;;;;20748384;28;20139;-43
2023/09/01 15:29:02;;;;;;;9.32;7.82;;;20.30;1.00;;;;;;20741867;28;20383;-43
2023/09/01 15:39:03;;;;;;;11.82;8.98;;;20.20;1.00;;;;;;20743975;28;20432;-43
2023/09/01 15:49:04;;;;;;;9.50;7.10;;;20.40;1.00;;;;;;20745332;28;20034;-43
2023/09/01 15:59:05;;;;;;;7.30;5.45;;;20.10;1.00;;;;;;20742582;28;20500;-43
2023/09/01 16:09:05;;;;;;;9.60;7.50;;;19.90;1.00;;;;;;20743548;28;20034;-43
2023/09/01 16:19:06;;;;;;;7.13;5.70;;;19.70;1.00;;;;;;20744984;28;20042;-43
2023/09/01 16:29:07;;;;;;;8.40;6.43;;;19.60;1.00;;;;;;20732754;28;20041;-43
2023/09/01 16:39:08;;;;;;;7.45;5.32;;;19.50;1.00;;;;;;20739279;28;20045;-43
2023/09/01 16:49:09;;;;;;;9.75;7.53;;;19.40;1.00;;;;;;20741993;28;20117;-43
2023/09/01 16:59:09;;;;;;;8.77;6.88;;;19.20;1.00;;;;;;20739513;28;20098;-43
2023/09/01 17:09:10;;;;;;;9.50;7.28;;;19.10;1.00;;;;;;20754353;28;20511;-43
2023/09/01 17:19:10;;;;;;;9.60;7.70;;;19.10;1.00;;;;;;20753695;28;20046;-43
2023/09/01 17:29:11;;;;;;;10.70;8.07;;;19.00;1.00;;;;;;20726062;28;20037;-42
2023/09/01 17:39:11;;;;;;;9.80;7.53;;;18.90;1.00;;;;;;20736525;28;20693;-43
2023/09/01 17:49:12;;;;;;;10.52;8.07;;;18.60;7.40;;;;;;20733030;28;20389;-42
2023/09/01 17:59:17;;;;;;;13.88;10.52;;;18.10;26.20;;;;;;20718204;28;20052;-43
2023/09/01 18:09:18;;;;;;;10.75;8.40;;;18.00;71.90;;;;;;20698967;28;20034;-43
2023/09/01 18:19:19;;;;;;;13.53;10.57;;;18.00;99.90;;;;;;20720415;28;20133;-43
2023/09/01 18:29:24;;;;;;;15.57;10.95;;;17.90;99.90;;;;;;20718862;28;20461;-44
2023/09/01 18:39:25;;;;;;;12.93;11.48;;;17.90;99.90;;;;;;20723711;28;20044;-43
2023/09/01 18:49:25;;;;;;;18.48;14.82;;;17.80;99.90;;;;;;20737103;28;20386;-43
2023/09/01 18:59:26;;;;;;;14.43;12.38;;;17.70;99.90;;;;;;20748681;28;20095;-42
2023/09/01 19:09:26;;;;;;;24.60;15.80;;;17.60;99.90;;;;;;20742944;28;20504;-42
2023/09/01 19:19:27;;;;;;;25.85;16.05;;;17.50;99.90;;;;;;20740871;28;20038;-43
2023/09/01 19:29:28;;;;;;;23.75;15.82;;;17.50;99.90;;;;;;20742557;28;20030;-43
2023/09/01 19:39:28;;;;;;;21.30;14.98;;;17.50;99.90;;;;;;20745149;28;20073;-43
2023/09/01 19:49:29;;;;;;;23.42;16.17;;;17.40;99.90;;;;;;20740529;28;20038;-43
2023/09/01 19:59:30;;;;;;;26.05;18.15;;;17.40;99.90;;;;;;20740029;28;20065;-43
2023/09/01 20:09:30;;;;;;;23.02;16.42;;;17.40;99.90;;;;;;20740416;28;20040;-43
2023/09/01 20:19:31;;;;;;;25.88;17.55;;;17.40;99.90;;;;;;20732190;28;20076;-43
2023/09/01 20:29:31;;;;;;;24.48;17.17;;;17.30;99.90;;;;;;20720416;28;20060;-43
2023/09/01 20:39:34;;;;;;;25.05;17.90;;;17.30;99.90;;;;;;20741583;28;20145;-43
2023/09/01 20:49:34;;;;;;;26.15;18.33;;;17.20;99.90;;;;;;20732630;28;20073;-42
2023/09/01 20:59:35;;;;;;;27.33;18.42;;;17.20;99.90;;;;;;20728962;28;20172;-43
2023/09/01 21:09:36;;;;;;;25.52;18.13;;;17.20;99.90;;;;;;20741291;28;20033;-42
2023/09/01 21:19:36;;;;;;;26.23;17.48;;;17.10;99.90;;;;;;20739771;28;20501;-43
2023/09/01 21:29:41;;;;;;;26.10;19.02;;;17.20;99.90;;;;;;20703060;28;20037;-43
2023/09/01 21:39:41;;;;;;;27.90;19.65;;;17.20;99.90;;;;;;20705766;28;20155;-43
2023/09/01 21:49:42;;;;;;;27.20;19.35;;;17.20;99.90;;;;;;20757746;28;20379;-43
2023/09/01 21:59:43;;;;;;;31.48;20.42;;;17.20;99.90;;;;;;20717843;28;20057;-43
2023/09/01 22:09:43;;;;;;;33.90;21.73;;;17.10;99.90;;;;;;20708110;28;20030;-43
2023/09/01 22:19:44;;;;;;;35.15;22.40;;;17.20;99.90;;;;;;20716881;28;20045;-43
2023/09/01 22:29:46;;;;;;;37.67;22.63;;;17.10;99.90;;;;;;20715708;28;20113;-43
2023/09/01 22:39:47;;;;;;;44.78;25.35;;;17.00;99.90;;;;;;20728098;28;20544;-43
2023/09/01 22:49:47;;;;;;;42.47;23.48;;;17.00;99.90;;;;;;20719830;28;20046;-43
2023/09/01 22:59:48;;;;;;;41.72;24.02;;;16.90;99.90;;;;;;20710302;28;20323;-43
2023/09/01 23:09:48;;;;;;;52.67;27.27;;;16.90;99.90;;;;;;20720682;28;20071;-43
2023/09/01 23:19:49;;;;;;;58.92;31.30;;;16.90;99.90;;;;;;20719490;28;20508;-43
2023/09/01 23:29:49;;;;;;;58.42;29.30;;;16.90;99.90;;;;;;20716203;28;20058;-43
2023/09/01 23:39:50;;;;;;;64.05;31.30;;;16.90;99.90;;;;;;20712144;28;20044;-43
2023/09/01 23:49:50;;;;;;;59.38;30.45;;;16.90;99.90;;;;;;20711616;28;20500;-43
2023/09/01 23:59:51;;;;;;;57.75;28.63;;;16.80;99.90;;;;;;20713360;28;20045;-43
